Aviation Digital Data Service (ADDS)

Output produced by TAFs form (2356 UTC 18 July 2018)
found at http://www.aviationweather.gov/adds/tafs/
 
METAR text: RORS 182300Z 06014KT 9999 FEW013 SCT020 29/25 Q1006
Conditions at: RORS (SHIMOJI-SHIMA IS, JP) observed 2300 UTC 18 July 2018
Temperature: 29.0°C (84°F)
Dewpoint: 25.0°C (77°F) [RH = 79%]
Pressure (altimeter): 29.70 inches Hg (1006.0 mb)
Winds: from the ENE (60 degrees) at 16 MPH (14 knots; 7.3 m/s)
Visibility: 6 or more miles (10+ km)
Ceiling: at least 12,000 feet AGL
Clouds: few clouds at 1300 feet AGL
scattered clouds at 2000 feet AGL
Weather: no significant weather observed at this time